Time;durP1;ratioP1;P1;durP2;ratioP2;P2;SDS_P1;SDS_P2;PMS_P1;PMS_P2;Temp;Humidity;BMP_temperature;BMP_pressure;BME280_temperature;BME280_humidity;BME280_pressure;Samples;Min_cycle;Max_cycle;Signal;HPM_P1;HPM_P2
2021/10/10 00:01:51;;;;;;;23.50;17.23;;;12.20;69.30;;;;;;5008073;28;20032;-91
2021/10/10 00:04:17;;;;;;;22.55;17.55;;;12.10;69.20;;;;;;4981471;28;20039;-91
2021/10/10 00:06:42;;;;;;;23.70;18.17;;;12.10;69.40;;;;;;4999308;28;20057;-91
2021/10/10 00:09:08;;;;;;;24.50;18.10;;;12.10;69.50;;;;;;5000460;28;20030;-91
2021/10/10 00:11:34;;;;;;;22.33;17.67;;;12.00;69.40;;;;;;5017822;28;20549;-90
2021/10/10 00:13:59;;;;;;;22.75;17.15;;;12.00;69.50;;;;;;4998025;28;20022;-89
2021/10/10 00:16:25;;;;;;;27.05;17.83;;;12.00;69.40;;;;;;5004536;28;20500;-91
2021/10/10 00:18:51;;;;;;;22.02;17.40;;;11.90;69.50;;;;;;5012452;28;20096;-90
2021/10/10 00:21:17;;;;;;;24.60;18.23;;;11.90;69.50;;;;;;4984209;28;20030;-91
2021/10/10 00:23:42;;;;;;;25.58;18.92;;;11.90;69.60;;;;;;4985581;28;20021;-91
2021/10/10 00:26:08;;;;;;;24.80;18.13;;;11.80;69.70;;;;;;5022197;28;20039;-91
2021/10/10 00:28:34;;;;;;;24.10;19.02;;;11.80;69.80;;;;;;4992123;28;20040;-90
2021/10/10 00:31:00;;;;;;;23.17;18.05;;;11.80;69.80;;;;;;5030320;28;20021;-90
2021/10/10 00:33:26;;;;;;;23.00;17.85;;;11.80;69.90;;;;;;5016709;28;20034;-91
2021/10/10 00:35:52;;;;;;;25.70;18.48;;;11.70;70.40;;;;;;5001605;28;20033;-91
2021/10/10 00:38:17;;;;;;;22.60;18.60;;;11.70;69.80;;;;;;5014801;28;20053;-89
2021/10/10 00:40:43;;;;;;;26.90;18.75;;;11.70;69.80;;;;;;5035183;28;20064;-90
2021/10/10 00:43:09;;;;;;;28.30;18.88;;;11.60;69.80;;;;;;5008204;28;20395;-90
2021/10/10 00:45:35;;;;;;;24.42;18.42;;;11.60;70.00;;;;;;5003890;28;20117;-91
2021/10/10 00:48:01;;;;;;;30.40;18.60;;;11.60;69.90;;;;;;4997639;28;20411;-91
2021/10/10 00:50:29;;;;;;;24.63;18.73;;;11.60;69.80;;;;;;5014825;28;20021;-91
2021/10/10 00:52:55;;;;;;;25.17;19.73;;;11.50;69.80;;;;;;5007169;28;20095;-90
2021/10/10 00:55:21;;;;;;;24.05;18.40;;;11.50;69.80;;;;;;5018815;28;20017;-89
2021/10/10 00:57:50;;;;;;;24.05;18.80;;;11.50;70.00;;;;;;5005795;28;20021;-90
2021/10/10 01:00:18;;;;;;;22.95;17.63;;;11.50;70.10;;;;;;5017509;28;20074;-90
2021/10/10 01:02:44;;;;;;;24.27;18.23;;;11.40;70.00;;;;;;5035535;28;20037;-90
2021/10/10 01:05:15;;;;;;;24.38;18.27;;;11.40;70.10;;;;;;5033919;28;20033;-89
2021/10/10 01:07:41;;;;;;;21.98;16.75;;;11.30;70.20;;;;;;5018894;28;20025;-91
2021/10/10 01:10:08;;;;;;;22.75;17.73;;;11.30;70.10;;;;;;5001571;28;20034;-91
2021/10/10 01:12:34;;;;;;;22.42;18.17;;;11.30;70.20;;;;;;5029434;28;20097;-90
2021/10/10 01:15:03;;;;;;;22.38;17.85;;;11.20;70.40;;;;;;4997536;28;20037;-90
2021/10/10 01:17:29;;;;;;;21.67;17.00;;;11.20;70.60;;;;;;5014484;28;20072;-91
2021/10/10 01:19:55;;;;;;;24.20;17.35;;;11.20;70.40;;;;;;5004221;28;20041;-90
2021/10/10 01:22:21;;;;;;;23.73;17.45;;;11.20;70.50;;;;;;5035578;28;20040;-90
2021/10/10 01:24:47;;;;;;;22.65;16.30;;;11.10;70.60;;;;;;5017993;28;20073;-90
2021/10/10 01:27:14;;;;;;;24.48;16.25;;;11.10;70.50;;;;;;5026087;28;20037;-91
2021/10/10 01:29:40;;;;;;;25.30;17.20;;;11.10;70.70;;;;;;5006572;28;20049;-91
2021/10/10 01:32:07;;;;;;;22.38;17.20;;;11.00;70.60;;;;;;5010480;28;20093;-89
2021/10/10 01:34:33;;;;;;;23.13;16.60;;;11.00;70.50;;;;;;5011481;28;20018;-90
2021/10/10 01:36:59;;;;;;;22.20;17.08;;;11.00;70.50;;;;;;4997815;28;20050;-91
2021/10/10 01:39:24;;;;;;;21.42;16.35;;;11.00;70.70;;;;;;5004213;28;20041;-91
2021/10/10 01:41:50;;;;;;;20.20;16.42;;;10.90;70.60;;;;;;5007633;28;20076;-90
2021/10/10 01:44:17;;;;;;;24.20;17.17;;;10.90;70.70;;;;;;5005869;28;20484;-90
2021/10/10 01:46:43;;;;;;;21.95;16.63;;;10.90;70.80;;;;;;5010929;28;20058;-91
2021/10/10 01:49:11;;;;;;;22.20;16.73;;;10.80;70.80;;;;;;5006398;28;20033;-91
2021/10/10 01:51:37;;;;;;;21.02;17.13;;;10.80;70.90;;;;;;5007892;28;20041;-90
2021/10/10 01:54:04;;;;;;;21.00;15.90;;;10.80;70.90;;;;;;5023914;28;20091;-90
2021/10/10 01:56:30;;;;;;;21.13;16.90;;;10.70;70.90;;;;;;5006553;28;20032;-90
2021/10/10 01:58:55;;;;;;;23.13;16.80;;;10.70;71.00;;;;;;5020788;28;20034;-91
2021/10/10 02:01:21;;;;;;;22.85;16.27;;;10.70;71.10;;;;;;5020446;28;20539;-90
2021/10/10 02:03:47;;;;;;;22.30;16.75;;;10.70;71.10;;;;;;4984490;28;20126;-90
2021/10/10 02:06:12;;;;;;;21.45;16.85;;;10.70;71.10;;;;;;5017627;28;20021;-90
2021/10/10 02:08:38;;;;;;;20.83;15.82;;;10.60;71.10;;;;;;5005761;28;20038;-90
2021/10/10 02:11:04;;;;;;;25.27;17.42;;;10.60;71.10;;;;;;5008682;28;20037;-89
2021/10/10 02:13:30;;;;;;;21.00;15.98;;;10.60;71.20;;;;;;5006723;28;20053;-90
2021/10/10 02:15:57;;;;;;;21.70;16.27;;;10.50;71.10;;;;;;5013739;28;20503;-90
2021/10/10 02:18:23;;;;;;;20.48;16.08;;;10.50;71.10;;;;;;5003917;28;20048;-91
2021/10/10 02:20:49;;;;;;;25.33;17.23;;;10.40;71.10;;;;;;5019015;28;20029;-91
2021/10/10 02:23:15;;;;;;;22.15;15.60;;;10.40;71.20;;;;;;5020356;28;20034;-91
2021/10/10 02:25:40;;;;;;;20.42;16.75;;;10.40;71.30;;;;;;5016479;28;20037;-89
2021/10/10 02:28:06;;;;;;;21.25;17.42;;;10.40;71.30;;;;;;4992380;28;20036;-90
2021/10/10 02:30:32;;;;;;;22.75;17.35;;;10.40;71.40;;;;;;5019294;28;20036;-90
2021/10/10 02:32:57;;;;;;;21.45;16.40;;;10.30;71.40;;;;;;5035731;28;20076;-91
2021/10/10 02:35:23;;;;;;;23.33;16.88;;;10.30;71.50;;;;;;5007017;28;20018;-90
2021/10/10 02:37:49;;;;;;;24.00;17.15;;;10.30;71.60;;;;;;5019054;28;20065;-91
2021/10/10 02:40:15;;;;;;;22.67;16.73;;;10.20;71.70;;;;;;5002370;28;20034;-91
2021/10/10 02:42:41;;;;;;;21.77;17.05;;;10.20;71.90;;;;;;5002802;28;20476;-91
2021/10/10 02:45:07;;;;;;;21.80;17.02;;;10.20;71.80;;;;;;5019420;28;20030;-91
2021/10/10 02:47:33;;;;;;;21.23;16.33;;;10.20;71.80;;;;;;5030160;28;20022;-90
2021/10/10 02:49:59;;;;;;;22.98;17.55;;;10.20;71.90;;;;;;5025859;28;20030;-92
2021/10/10 02:52:25;;;;;;;23.30;18.55;;;10.10;71.90;;;;;;5004146;28;20119;-91
2021/10/10 02:54:51;;;;;;;25.63;17.67;;;10.10;72.00;;;;;;5008786;28;20028;-90
2021/10/10 02:57:18;;;;;;;25.02;17.67;;;10.10;72.10;;;;;;5028062;28;20017;-89
2021/10/10 02:59:44;;;;;;;22.73;17.92;;;10.10;72.20;;;;;;4992618;28;20052;-90
2021/10/10 03:02:10;;;;;;;23.08;18.48;;;10.00;72.30;;;;;;5007503;28;20068;-91
2021/10/10 03:04:35;;;;;;;19.45;16.38;;;10.00;72.30;;;;;;5030603;28;20034;-90
2021/10/10 03:07:01;;;;;;;18.02;16.08;;;10.00;72.30;;;;;;5000230;28;20519;-91
2021/10/10 03:09:27;;;;;;;22.17;17.33;;;10.00;72.30;;;;;;5013873;28;20480;-91
2021/10/10 03:11:52;;;;;;;22.48;17.05;;;10.00;72.30;;;;;;4983520;28;20029;-91
2021/10/10 03:14:18;;;;;;;22.67;17.98;;;9.90;72.30;;;;;;5002168;28;20105;-91
2021/10/10 03:16:44;;;;;;;24.65;18.23;;;9.90;72.30;;;;;;4999152;28;20091;-90
2021/10/10 03:19:09;;;;;;;22.63;18.48;;;9.90;72.30;;;;;;5010547;28;20030;-90
2021/10/10 03:21:35;;;;;;;25.27;18.67;;;9.80;72.40;;;;;;5011785;28;20034;-90
2021/10/10 03:24:01;;;;;;;23.10;18.98;;;9.80;72.50;;;;;;5024922;28;20028;-92
2021/10/10 03:26:27;;;;;;;25.88;18.67;;;9.80;72.60;;;;;;4982209;28;20033;-90
2021/10/10 03:28:52;;;;;;;25.98;18.88;;;9.80;72.70;;;;;;5000555;28;20442;-90
2021/10/10 03:31:18;;;;;;;23.08;17.92;;;9.80;72.70;;;;;;5020375;28;20112;-91
2021/10/10 03:33:44;;;;;;;22.23;17.83;;;9.80;72.60;;;;;;5027386;28;20044;-90
2021/10/10 03:36:10;;;;;;;20.98;17.52;;;9.70;72.50;;;;;;4966546;28;20033;-90
2021/10/10 03:38:37;;;;;;;23.63;18.80;;;9.70;72.50;;;;;;5006272;28;20545;-91
2021/10/10 03:41:02;;;;;;;26.63;19.20;;;9.70;72.60;;;;;;5012272;28;20029;-90
2021/10/10 03:43:28;;;;;;;24.48;18.83;;;9.70;72.80;;;;;;5017505;28;20064;-90
2021/10/10 03:45:54;;;;;;;24.50;18.17;;;9.60;72.70;;;;;;5010620;28;20030;-90
2021/10/10 03:48:20;;;;;;;23.77;18.33;;;9.60;72.70;;;;;;5001750;28;20032;-91
2021/10/10 03:50:46;;;;;;;21.75;17.45;;;9.60;72.60;;;;;;5003264;28;20030;-91
2021/10/10 03:53:11;;;;;;;26.02;18.65;;;9.60;72.70;;;;;;5009742;28;20025;-91
2021/10/10 03:55:38;;;;;;;27.00;19.38;;;9.60;72.80;;;;;;4985228;28;20083;-89
2021/10/10 03:58:05;;;;;;;26.58;20.02;;;9.50;72.90;;;;;;4998479;28;20054;-91
2021/10/10 04:00:33;;;;;;;23.77;18.92;;;9.50;73.00;;;;;;5000715;28;20026;-89
2021/10/10 04:03:02;;;;;;;24.25;19.00;;;9.50;73.10;;;;;;5001586;28;20017;-91
2021/10/10 04:07:57;;;;;;;24.42;18.70;;;9.50;73.10;;;;;;5031820;28;20110;-91
2021/10/10 04:10:23;;;;;;;25.55;19.73;;;9.40;73.10;;;;;;5025970;28;20025;-91
2021/10/10 04:12:49;;;;;;;24.70;18.83;;;9.40;73.20;;;;;;5003091;28;20056;-91
2021/10/10 04:15:15;;;;;;;25.17;19.45;;;9.40;73.30;;;;;;5034588;28;20021;-90
2021/10/10 04:17:42;;;;;;;26.48;20.00;;;9.40;73.40;;;;;;5019107;28;20025;-90
2021/10/10 04:20:10;;;;;;;29.13;19.83;;;9.40;73.40;;;;;;5006891;28;20042;-91
2021/10/10 04:22:35;;;;;;;25.02;19.73;;;9.30;73.30;;;;;;5003598;28;20030;-90
2021/10/10 04:25:02;;;;;;;29.88;20.77;;;9.30;73.30;;;;;;4997846;28;20029;-90
2021/10/10 04:27:28;;;;;;;27.25;19.33;;;9.30;73.40;;;;;;4983980;28;20040;-90
2021/10/10 04:29:53;;;;;;;26.15;19.75;;;9.30;73.50;;;;;;5002606;28;20376;-91
2021/10/10 04:32:19;;;;;;;21.98;17.95;;;9.30;73.60;;;;;;5010331;28;20033;-91
2021/10/10 04:34:45;;;;;;;28.15;19.55;;;9.20;73.50;;;;;;5003168;28;20041;-91
2021/10/10 04:37:10;;;;;;;23.27;18.98;;;9.20;73.50;;;;;;4997513;28;20064;-90
2021/10/10 04:39:36;;;;;;;27.17;19.45;;;9.20;73.50;;;;;;4994670;28;20030;-90
2021/10/10 04:42:05;;;;;;;25.63;19.55;;;9.20;73.60;;;;;;4998552;28;20018;-91
2021/10/10 04:44:30;;;;;;;23.88;19.17;;;9.10;73.50;;;;;;4999216;28;20015;-89
2021/10/10 04:46:56;;;;;;;26.33;19.75;;;9.10;73.60;;;;;;5014887;28;20110;-91
2021/10/10 04:49:22;;;;;;;27.80;20.10;;;9.10;73.70;;;;;;4997714;28;20097;-91
2021/10/10 04:51:47;;;;;;;28.38;20.77;;;9.10;73.80;;;;;;4997319;28;20121;-91
2021/10/10 04:54:13;;;;;;;24.08;18.98;;;9.10;73.80;;;;;;4996708;28;20241;-91
2021/10/10 04:56:40;;;;;;;29.02;21.27;;;9.10;73.80;;;;;;4997663;28;20022;-90
2021/10/10 04:59:06;;;;;;;27.20;20.48;;;9.10;73.70;;;;;;4998185;28;20095;-90
2021/10/10 05:01:32;;;;;;;27.23;20.90;;;9.00;73.80;;;;;;5012937;28;20546;-90
2021/10/10 05:03:57;;;;;;;29.05;20.85;;;9.00;73.80;;;;;;4990235;28;20038;-91
2021/10/10 05:06:23;;;;;;;27.55;21.00;;;9.00;73.90;;;;;;4996193;28;20177;-89
2021/10/10 05:08:49;;;;;;;27.42;19.90;;;8.90;73.90;;;;;;4981306;28;20054;-91
2021/10/10 05:11:14;;;;;;;26.02;20.17;;;8.90;73.90;;;;;;4999172;28;20041;-90
2021/10/10 05:13:40;;;;;;;25.55;20.45;;;8.90;74.00;;;;;;4997086;28;20033;-90
2021/10/10 05:16:06;;;;;;;26.80;20.40;;;8.90;73.90;;;;;;4993081;28;20022;-91
2021/10/10 05:18:31;;;;;;;29.50;20.73;;;8.90;73.80;;;;;;5017912;28;20026;-90
2021/10/10 05:20:57;;;;;;;29.35;20.55;;;8.80;73.70;;;;;;5002253;28;20033;-91
2021/10/10 05:23:23;;;;;;;26.20;19.92;;;8.80;73.80;;;;;;5002164;28;20087;-89
2021/10/10 05:25:49;;;;;;;30.27;21.52;;;8.80;73.70;;;;;;5017832;28;20026;-90
2021/10/10 05:28:14;;;;;;;26.67;20.70;;;8.80;73.80;;;;;;5000688;28;20049;-91
2021/10/10 05:30:40;;;;;;;25.67;20.77;;;8.80;73.90;;;;;;5003914;28;20045;-90
2021/10/10 05:33:06;;;;;;;26.35;20.77;;;8.70;73.90;;;;;;5004082;28;20037;-90
2021/10/10 05:35:32;;;;;;;26.55;19.23;;;8.70;73.80;;;;;;5002270;28;20567;-91
2021/10/10 05:38:00;;;;;;;26.17;19.85;;;8.70;73.70;;;;;;5001040;28;20136;-90
2021/10/10 05:40:26;;;;;;;26.95;21.38;;;8.70;73.70;;;;;;5002040;28;20033;-91
2021/10/10 05:42:51;;;;;;;25.73;21.05;;;8.70;73.70;;;;;;5014373;28;20493;-91
2021/10/10 05:45:20;;;;;;;31.02;22.48;;;8.70;73.80;;;;;;5017696;28;20034;-91
2021/10/10 05:47:45;;;;;;;32.75;22.90;;;8.60;73.80;;;;;;5000811;28;20034;-91
2021/10/10 05:50:11;;;;;;;28.83;22.73;;;8.60;73.90;;;;;;4988099;28;20370;-90
2021/10/10 05:52:37;;;;;;;26.30;20.50;;;8.60;74.00;;;;;;5016918;28;20022;-89
2021/10/10 05:55:08;;;;;;;27.98;20.95;;;8.60;74.00;;;;;;5016604;28;20084;-90
2021/10/10 05:57:44;;;;;;;27.52;20.38;;;8.50;74.10;;;;;;4999507;28;20033;-91
2021/10/10 06:00:11;;;;;;;27.55;21.20;;;8.50;74.10;;;;;;4987255;28;20030;-90
2021/10/10 06:02:37;;;;;;;28.63;21.70;;;8.50;74.10;;;;;;5013209;28;20049;-91
2021/10/10 06:05:03;;;;;;;28.17;21.02;;;8.50;74.20;;;;;;5012791;28;20026;-91
2021/10/10 06:07:28;;;;;;;26.33;21.00;;;8.50;74.20;;;;;;5002590;28;20045;-91
2021/10/10 06:09:54;;;;;;;29.02;21.65;;;8.50;74.40;;;;;;5003377;28;20054;-90
2021/10/10 06:12:21;;;;;;;29.42;21.42;;;8.50;74.50;;;;;;5017246;28;20473;-90
2021/10/10 06:14:50;;;;;;;29.38;22.08;;;8.50;74.60;;;;;;5018353;28;20002;-91
2021/10/10 06:17:19;;;;;;;29.58;22.88;;;8.40;74.60;;;;;;5020064;28;20481;-90
2021/10/10 06:19:45;;;;;;;28.55;22.00;;;8.50;74.70;;;;;;5001278;28;20080;-90
2021/10/10 06:22:11;;;;;;;27.40;21.88;;;8.50;74.90;;;;;;5002705;28;20037;-90
2021/10/10 06:24:37;;;;;;;31.52;23.55;;;8.50;75.00;;;;;;5013792;28;20038;-90
2021/10/10 06:27:03;;;;;;;32.25;24.73;;;8.50;75.20;;;;;;4999034;28;20026;-90
2021/10/10 06:29:29;;;;;;;30.00;23.42;;;8.50;75.40;;;;;;5022329;28;20033;-91
2021/10/10 06:31:55;;;;;;;31.85;23.83;;;8.50;75.50;;;;;;5001190;28;20152;-90
2021/10/10 06:34:21;;;;;;;28.08;22.83;;;8.50;75.60;;;;;;5017067;28;20038;-90
2021/10/10 06:36:47;;;;;;;29.73;22.88;;;8.50;75.80;;;;;;5017764;28;20022;-89
2021/10/10 06:39:12;;;;;;;31.08;23.65;;;8.50;75.90;;;;;;5005789;28;20065;-89
2021/10/10 06:41:39;;;;;;;30.25;24.40;;;8.50;76.00;;;;;;5002883;28;20137;-90
2021/10/10 06:44:06;;;;;;;30.73;24.30;;;8.50;76.20;;;;;;5017970;28;20483;-89
2021/10/10 06:46:32;;;;;;;30.98;24.65;;;8.50;76.50;;;;;;4986331;28;20037;-92
2021/10/10 06:48:57;;;;;;;32.55;24.33;;;8.60;77.00;;;;;;4999168;28;20721;-90
2021/10/10 06:51:23;;;;;;;34.80;25.58;;;8.60;77.20;;;;;;4978631;28;20029;-90
2021/10/10 06:53:48;;;;;;;30.08;24.10;;;8.60;77.40;;;;;;5018846;28;20057;-90
2021/10/10 06:56:14;;;;;;;29.38;23.73;;;8.60;77.50;;;;;;5029817;28;20051;-88
2021/10/10 06:58:40;;;;;;;30.80;22.95;;;8.70;77.60;;;;;;4985867;28;20025;-89
2021/10/10 07:01:05;;;;;;;32.17;24.95;;;8.70;77.70;;;;;;5035805;28;20339;-89
2021/10/10 07:03:31;;;;;;;32.65;23.98;;;8.70;78.00;;;;;;5006447;28;20034;-91
2021/10/10 07:05:57;;;;;;;31.38;24.83;;;8.80;78.20;;;;;;4999351;28;20026;-89
2021/10/10 07:08:22;;;;;;;30.13;25.08;;;8.80;78.40;;;;;;4983339;28;20121;-90
2021/10/10 07:10:48;;;;;;;35.17;28.13;;;8.80;78.60;;;;;;5016536;28;20076;-91
2021/10/10 07:13:13;;;;;;;36.80;28.98;;;8.90;79.00;;;;;;4986328;28;20025;-89
2021/10/10 07:15:39;;;;;;;35.83;28.63;;;8.90;79.10;;;;;;4996340;28;20041;-89
2021/10/10 07:18:06;;;;;;;37.92;27.35;;;9.00;79.40;;;;;;5004405;28;20116;-90
2021/10/10 07:26:00;;;;;;;38.95;27.73;;;9.20;80.20;;;;;;4980923;28;20037;-89
2021/10/10 07:28:26;;;;;;;36.05;27.60;;;9.30;80.60;;;;;;5017423;28;20025;-90
2021/10/10 07:30:52;;;;;;;31.77;26.42;;;9.40;81.00;;;;;;4997557;28;20030;-89
2021/10/10 07:33:18;;;;;;;32.40;24.88;;;9.50;81.20;;;;;;5000556;28;20013;-90
2021/10/10 07:35:44;;;;;;;35.33;27.40;;;9.50;81.30;;;;;;5008368;28;20059;-88
2021/10/10 07:38:10;;;;;;;31.88;26.67;;;9.60;81.30;;;;;;5017990;28;20026;-90
2021/10/10 07:40:36;;;;;;;34.00;26.63;;;9.60;81.40;;;;;;5015624;28;20032;-90
2021/10/10 07:43:02;;;;;;;37.15;28.77;;;9.70;81.50;;;;;;4999850;28;20038;-90
2021/10/10 07:45:28;;;;;;;33.40;26.95;;;9.80;81.80;;;;;;5014346;28;20029;-90
2021/10/10 07:48:02;;;;;;;34.25;27.10;;;9.80;82.00;;;;;;5017408;28;20026;-89
2021/10/10 07:50:28;;;;;;;41.72;27.63;;;9.90;82.10;;;;;;5001090;28;20381;-90
2021/10/10 07:52:54;;;;;;;38.53;29.73;;;10.00;82.00;;;;;;4981371;28;20028;-89
2021/10/10 07:55:20;;;;;;;35.17;28.30;;;10.10;82.40;;;;;;5000549;28;20022;-89
2021/10/10 07:57:45;;;;;;;35.97;27.98;;;10.10;82.40;;;;;;5003528;28;20029;-88
2021/10/10 08:00:11;;;;;;;34.92;27.85;;;10.20;82.40;;;;;;5007508;28;20026;-88
2021/10/10 08:02:58;;;;;;;37.70;29.52;;;10.30;82.40;;;;;;5013840;28;20056;-88
2021/10/10 08:05:27;;;;;;;38.08;28.27;;;10.40;82.50;;;;;;5011831;28;20053;-87
2021/10/10 08:07:53;;;;;;;37.72;28.20;;;10.40;82.60;;;;;;5016175;28;20065;-88
2021/10/10 08:10:19;;;;;;;34.67;28.75;;;10.50;82.60;;;;;;5015999;28;20029;-87
2021/10/10 08:12:45;;;;;;;37.33;29.80;;;10.60;82.70;;;;;;4985168;28;20129;-88
2021/10/10 08:15:11;;;;;;;40.38;30.02;;;10.70;82.80;;;;;;5016684;28;20433;-90
2021/10/10 08:17:37;;;;;;;42.45;31.48;;;10.80;82.80;;;;;;5010034;28;20029;-88
2021/10/10 08:20:05;;;;;;;40.97;31.75;;;10.80;83.00;;;;;;5033172;28;20032;-87
2021/10/10 08:22:33;;;;;;;40.20;32.42;;;10.90;83.10;;;;;;5012995;28;20087;-88
2021/10/10 08:25:00;;;;;;;41.75;32.75;;;10.90;83.30;;;;;;4981676;28;20056;-88
2021/10/10 08:27:25;;;;;;;37.78;29.98;;;11.00;83.50;;;;;;5015427;28;20103;-87
2021/10/10 08:29:51;;;;;;;38.33;31.70;;;11.00;83.60;;;;;;4998359;28;20778;-86
2021/10/10 08:32:17;;;;;;;41.50;32.33;;;11.10;84.10;;;;;;5015193;28;20030;-87
2021/10/10 08:34:43;;;;;;;42.83;31.48;;;11.10;84.20;;;;;;5015401;28;20021;-86
2021/10/10 08:37:08;;;;;;;42.47;32.92;;;11.10;84.10;;;;;;4982660;28;20420;-86
2021/10/10 08:39:34;;;;;;;36.83;30.77;;;11.10;84.70;;;;;;4994046;28;20034;-86
2021/10/10 08:42:03;;;;;;;38.08;31.77;;;11.20;84.20;;;;;;4999189;28;20514;-86
2021/10/10 08:44:41;;;;;;;38.53;30.27;;;11.20;84.10;;;;;;4999892;28;20029;-86
2021/10/10 08:47:15;;;;;;;38.17;30.25;;;11.30;83.90;;;;;;5016994;28;20095;-88
2021/10/10 08:49:41;;;;;;;37.60;26.85;;;11.40;84.50;;;;;;5023931;28;20047;-88
2021/10/10 08:52:14;;;;;;;40.55;31.95;;;11.50;83.80;;;;;;4983173;28;20030;-88
2021/10/10 08:54:41;;;;;;;35.25;28.08;;;11.50;84.10;;;;;;5015962;28;20060;-88
2021/10/10 08:57:11;;;;;;;38.63;30.45;;;11.60;84.00;;;;;;4993794;28;20022;-88
2021/10/10 08:59:42;;;;;;;36.83;29.73;;;11.70;83.70;;;;;;4993167;28;20033;-87
2021/10/10 09:02:18;;;;;;;39.63;30.77;;;11.80;83.70;;;;;;5031495;28;20052;-88
2021/10/10 09:04:43;;;;;;;40.22;31.38;;;11.90;83.50;;;;;;5032938;28;20029;-88
2021/10/10 09:07:09;;;;;;;30.55;24.15;;;12.00;83.00;;;;;;5015868;28;20044;-88
2021/10/10 09:09:36;;;;;;;39.15;29.40;;;12.20;82.60;;;;;;5023920;28;20022;-87
2021/10/10 09:12:07;;;;;;;39.17;31.13;;;12.30;82.70;;;;;;5005784;28;20333;-86
2021/10/10 09:14:50;;;;;;;39.75;29.60;;;12.40;82.60;;;;;;5014852;28;20114;-87
2021/10/10 09:17:21;;;;;;;36.00;27.92;;;12.40;82.40;;;;;;5016923;28;20037;-88
2021/10/10 09:19:50;;;;;;;38.33;29.48;;;12.50;82.10;;;;;;5001515;28;20541;-88
2021/10/10 09:22:17;;;;;;;32.97;27.63;;;12.60;82.10;;;;;;5009760;28;20057;-88
2021/10/10 09:24:43;;;;;;;38.08;31.48;;;12.60;81.70;;;;;;5027748;28;20575;-87
2021/10/10 09:27:14;;;;;;;35.30;26.52;;;12.60;81.30;;;;;;4990273;28;20026;-87
2021/10/10 09:29:43;;;;;;;37.30;30.08;;;12.60;81.30;;;;;;4999210;28;20159;-87
2021/10/10 09:32:10;;;;;;;35.10;29.13;;;12.70;81.20;;;;;;5022081;28;20014;-88
2021/10/10 09:34:37;;;;;;;36.72;29.85;;;12.80;81.40;;;;;;4996973;28;20129;-88
2021/10/10 09:37:10;;;;;;;34.40;27.42;;;12.80;81.50;;;;;;5004106;28;20065;-88
2021/10/10 09:39:40;;;;;;;36.15;29.40;;;12.90;81.20;;;;;;5011227;28;20029;-87
2021/10/10 09:42:06;;;;;;;36.08;29.65;;;13.00;81.50;;;;;;5005358;28;20026;-87
2021/10/10 09:44:46;;;;;;;34.53;28.17;;;13.10;81.50;;;;;;5012156;28;20488;-88
2021/10/10 09:47:12;;;;;;;37.03;28.25;;;13.20;81.30;;;;;;5007812;28;20029;-87
2021/10/10 09:49:38;;;;;;;38.50;29.00;;;13.30;81.30;;;;;;5006378;28;20025;-87
2021/10/10 09:52:13;;;;;;;33.75;26.52;;;13.40;81.30;;;;;;5000302;28;20022;-87
2021/10/10 09:54:58;;;;;;;33.45;27.10;;;13.40;80.70;;;;;;5009760;28;20105;-87
2021/10/10 09:57:27;;;;;;;32.67;26.30;;;13.50;80.40;;;;;;5001446;28;20025;-87
2021/10/10 09:59:53;;;;;;;39.05;30.13;;;13.50;80.40;;;;;;5022474;28;20132;-87
2021/10/10 10:02:38;;;;;;;37.25;28.77;;;13.40;80.30;;;;;;5016387;28;20029;-88
2021/10/10 10:05:04;;;;;;;35.70;27.50;;;13.40;80.50;;;;;;5001514;28;20025;-87
2021/10/10 10:07:31;;;;;;;35.10;25.73;;;13.50;80.80;;;;;;5012716;28;20033;-87
2021/10/10 10:09:56;;;;;;;33.88;27.95;;;13.50;80.90;;;;;;5006035;28;20136;-86
2021/10/10 10:12:25;;;;;;;35.97;29.48;;;13.60;80.50;;;;;;5001807;28;20140;-87
2021/10/10 10:14:56;;;;;;;35.70;29.60;;;13.70;80.10;;;;;;5017239;28;20032;-87
2021/10/10 10:17:23;;;;;;;33.08;26.20;;;13.80;79.90;;;;;;5016955;28;20027;-87
2021/10/10 10:19:50;;;;;;;32.75;27.30;;;14.00;79.70;;;;;;4989659;28;20032;-87
2021/10/10 10:22:17;;;;;;;35.15;28.60;;;14.20;78.80;;;;;;5035072;28;20144;-87
2021/10/10 10:24:45;;;;;;;29.77;24.00;;;14.30;77.80;;;;;;5027977;28;20096;-87
2021/10/10 10:27:16;;;;;;;32.63;25.33;;;14.50;77.70;;;;;;5002335;28;20037;-87
2021/10/10 10:29:46;;;;;;;29.30;24.25;;;14.70;77.10;;;;;;5017719;28;20480;-87
2021/10/10 10:32:15;;;;;;;34.17;26.05;;;14.90;76.40;;;;;;5025621;28;20071;-88
2021/10/10 10:34:56;;;;;;;31.80;25.60;;;15.00;75.70;;;;;;5003547;28;20156;-87
2021/10/10 10:37:25;;;;;;;30.80;25.08;;;15.20;75.30;;;;;;5022231;28;20175;-88
2021/10/10 10:39:51;;;;;;;28.60;22.73;;;15.30;75.40;;;;;;5023696;28;20017;-88
2021/10/10 10:42:23;;;;;;;28.13;24.08;;;15.40;75.60;;;;;;4997582;28;20041;-88
2021/10/10 10:44:50;;;;;;;29.63;23.52;;;15.60;75.30;;;;;;5008765;28;20112;-85
2021/10/10 10:47:17;;;;;;;30.20;24.02;;;15.80;74.40;;;;;;4993748;28;20049;-86
2021/10/10 10:49:53;;;;;;;26.48;23.40;;;15.90;72.40;;;;;;5027975;28;20502;-86
2021/10/10 10:52:37;;;;;;;26.67;22.80;;;15.90;73.00;;;;;;5022164;28;20025;-87
2021/10/10 10:55:05;;;;;;;26.52;22.48;;;16.10;72.80;;;;;;4995674;28;20024;-86
2021/10/10 10:57:57;;;;;;;31.60;23.60;;;16.30;72.60;;;;;;5017927;28;20475;-87
2021/10/10 11:00:33;;;;;;;29.60;22.23;;;16.50;72.00;;;;;;5028054;28;20534;-86
2021/10/10 11:02:58;;;;;;;26.85;20.48;;;16.60;71.00;;;;;;5032407;28;20022;-86
2021/10/10 11:05:34;;;;;;;21.65;17.50;;;16.80;71.00;;;;;;5009659;28;20479;-88
2021/10/10 11:08:20;;;;;;;24.85;18.98;;;16.90;69.50;;;;;;5016025;28;20029;-88
2021/10/10 11:11:04;;;;;;;22.77;18.50;;;17.00;68.70;;;;;;5012861;28;20041;-86
2021/10/10 11:14:02;;;;;;;22.00;18.38;;;17.10;69.00;;;;;;5014564;28;20026;-88
2021/10/10 11:16:41;;;;;;;22.88;17.98;;;17.20;68.80;;;;;;5024277;28;20452;-86
2021/10/10 11:19:09;;;;;;;21.05;16.42;;;17.30;67.10;;;;;;5008851;28;20432;-90
2021/10/10 11:21:37;;;;;;;23.02;17.77;;;17.40;66.90;;;;;;5011956;28;20026;-90
2021/10/10 11:24:19;;;;;;;23.02;16.17;;;17.60;65.50;;;;;;5019416;28;20068;-90
2021/10/10 11:26:47;;;;;;;22.63;16.85;;;17.70;65.50;;;;;;5019366;28;20026;-89
2021/10/10 11:29:15;;;;;;;18.58;15.88;;;17.70;64.60;;;;;;5022847;28;20033;-88
2021/10/10 11:31:44;;;;;;;22.13;16.95;;;17.80;64.60;;;;;;5018392;28;20026;-89
2021/10/10 11:34:23;;;;;;;19.17;15.48;;;17.80;64.30;;;;;;5033769;28;20073;-90
2021/10/10 11:36:54;;;;;;;17.95;14.77;;;17.90;63.50;;;;;;5016710;28;20116;-89
2021/10/10 11:39:24;;;;;;;25.25;17.52;;;18.00;62.60;;;;;;5012504;28;20369;-89
2021/10/10 11:41:59;;;;;;;26.58;17.67;;;18.00;62.30;;;;;;5008786;28;20029;-89
2021/10/10 11:44:33;;;;;;;17.15;15.38;;;18.10;62.60;;;;;;5011760;28;20072;-90
2021/10/10 11:47:00;;;;;;;22.33;17.73;;;18.20;61.90;;;;;;5017016;28;20049;-89
2021/10/10 11:49:37;;;;;;;23.75;18.63;;;18.30;61.20;;;;;;5030789;28;20021;-89
2021/10/10 11:52:20;;;;;;;26.20;17.67;;;18.10;61.20;;;;;;5018069;28;20017;-89
2021/10/10 11:55:46;;;;;;;22.00;16.80;;;17.90;61.70;;;;;;5012316;28;20022;-89
2021/10/10 11:58:12;;;;;;;21.92;16.95;;;17.70;63.10;;;;;;4952310;28;20031;-89
2021/10/10 12:00:38;;;;;;;23.02;16.25;;;17.50;64.10;;;;;;4938954;29;20048;-90
2021/10/10 12:03:14;;;;;;;22.85;16.27;;;17.60;63.20;;;;;;4996844;28;20048;-90
2021/10/10 12:05:44;;;;;;;19.67;15.77;;;17.80;62.60;;;;;;5003451;28;20055;-91
2021/10/10 12:08:21;;;;;;;24.45;18.35;;;18.00;61.80;;;;;;5016908;28;20048;-89
2021/10/10 12:10:48;;;;;;;26.83;16.80;;;18.00;60.90;;;;;;5024618;28;20057;-90
2021/10/10 12:13:14;;;;;;;18.83;16.15;;;18.20;61.20;;;;;;4980829;28;20065;-90
2021/10/10 12:15:40;;;;;;;20.23;15.95;;;18.20;61.50;;;;;;4991879;28;20615;-89
2021/10/10 12:18:15;;;;;;;21.02;15.80;;;18.30;60.40;;;;;;5008809;28;20053;-88
2021/10/10 12:20:42;;;;;;;21.75;16.33;;;18.40;60.00;;;;;;5020809;28;20495;-89
2021/10/10 12:23:12;;;;;;;21.77;15.93;;;18.40;59.80;;;;;;5001536;28;21354;-88
2021/10/10 12:25:38;;;;;;;23.10;16.88;;;18.50;60.70;;;;;;5023544;28;20488;-88
2021/10/10 12:28:05;;;;;;;19.10;15.43;;;18.60;60.30;;;;;;5020599;28;20079;-89
2021/10/10 12:30:52;;;;;;;21.67;17.42;;;18.70;60.60;;;;;;5016163;28;20032;-89
2021/10/10 12:33:24;;;;;;;21.60;17.55;;;18.80;60.20;;;;;;5016604;28;20053;-89
2021/10/10 12:35:56;;;;;;;19.55;14.93;;;18.90;59.20;;;;;;5033928;28;20051;-88
2021/10/10 12:38:32;;;;;;;19.25;15.00;;;18.80;58.40;;;;;;5016272;28;20041;-87
2021/10/10 12:41:24;;;;;;;21.10;16.92;;;18.70;58.20;;;;;;5019889;28;20047;-87
2021/10/10 12:44:13;;;;;;;26.95;17.73;;;18.60;58.30;;;;;;5016568;28;20022;-88